Time;durP1;ratioP1;P1;durP2;ratioP2;P2;SDS_P1;SDS_P2;PMS_P1;PMS_P2;Temp;Humidity;BMP_temperature;BMP_pressure;BME280_temperature;BME280_humidity;BME280_pressure;Samples;Min_cycle;Max_cycle;Signal;HPM_P1;HPM_P2
2022/10/24 00:02:15;;;;;;;7.15;6.53;;;16.70;99.90;;;;;;5075831;28;20071;-64
2022/10/24 00:04:41;;;;;;;6.88;6.18;;;16.70;99.90;;;;;;5075630;28;20024;-63
2022/10/24 00:07:08;;;;;;;7.90;6.72;;;16.60;99.90;;;;;;5075529;28;20029;-63
2022/10/24 00:09:35;;;;;;;7.13;6.43;;;16.70;99.90;;;;;;5075838;28;20031;-62
2022/10/24 00:12:01;;;;;;;9.65;8.55;;;16.70;99.90;;;;;;5075357;28;20024;-64
2022/10/24 00:14:28;;;;;;;8.82;7.60;;;16.70;99.90;;;;;;5075299;28;20105;-62
2022/10/24 00:16:53;;;;;;;9.63;8.63;;;16.60;99.90;;;;;;5075361;28;20021;-62
2022/10/24 00:19:19;;;;;;;7.75;6.95;;;16.60;99.90;;;;;;5075617;28;20359;-62
2022/10/24 00:21:45;;;;;;;7.25;6.55;;;16.50;99.90;;;;;;5075179;28;20028;-62
2022/10/24 00:24:10;;;;;;;7.55;6.85;;;16.50;99.90;;;;;;5075407;28;20020;-63
2022/10/24 00:26:36;;;;;;;7.20;6.50;;;16.50;99.90;;;;;;5075181;28;20112;-65
2022/10/24 00:29:02;;;;;;;7.35;6.65;;;16.50;99.90;;;;;;5075022;28;20077;-63
2022/10/24 00:31:28;;;;;;;8.73;7.03;;;16.50;99.90;;;;;;5075092;28;20036;-65
2022/10/24 00:33:55;;;;;;;8.02;6.82;;;16.40;99.90;;;;;;5075016;28;20119;-63
2022/10/24 00:36:22;;;;;;;8.57;6.55;;;16.50;99.90;;;;;;5075296;28;20417;-64
2022/10/24 00:38:50;;;;;;;6.95;5.95;;;16.40;99.90;;;;;;5074980;28;20360;-65
2022/10/24 00:41:19;;;;;;;8.10;6.10;;;16.40;99.90;;;;;;5074740;28;20112;-63
2022/10/24 00:43:45;;;;;;;10.93;8.57;;;16.40;99.90;;;;;;5075175;28;20035;-64
2022/10/24 00:46:11;;;;;;;7.25;6.55;;;16.40;99.90;;;;;;5074777;28;20099;-64
2022/10/24 00:48:47;;;;;;;6.85;6.15;;;16.30;99.90;;;;;;5075086;28;20074;-64
2022/10/24 00:51:26;;;;;;;6.88;6.15;;;16.20;99.90;;;;;;5074666;28;20074;-64
2022/10/24 00:53:58;;;;;;;8.60;7.50;;;16.20;99.90;;;;;;5074617;28;20079;-64
2022/10/24 00:56:29;;;;;;;9.38;7.38;;;16.20;99.90;;;;;;5074738;28;20052;-63
2022/10/24 00:58:56;;;;;;;7.43;6.55;;;16.20;99.90;;;;;;5074890;28;20020;-63
2022/10/24 01:01:24;;;;;;;10.05;7.75;;;16.10;99.90;;;;;;5074625;28;20050;-62
2022/10/24 01:03:50;;;;;;;8.95;6.68;;;16.10;99.90;;;;;;5073516;28;20448;-62
2022/10/24 01:06:48;;;;;;;7.68;6.63;;;16.00;99.90;;;;;;5074413;28;20024;-64
2022/10/24 01:09:26;;;;;;;7.00;6.30;;;16.00;99.90;;;;;;5074531;28;20017;-64
2022/10/24 01:12:06;;;;;;;7.45;6.45;;;16.00;99.90;;;;;;5074126;28;20021;-64
2022/10/24 01:14:41;;;;;;;9.20;8.30;;;15.90;99.90;;;;;;5074108;28;20497;-63
2022/10/24 01:17:18;;;;;;;8.35;7.57;;;16.00;99.90;;;;;;5072870;28;20419;-64
2022/10/24 01:20:13;;;;;;;8.25;6.82;;;15.90;99.90;;;;;;5074109;28;20017;-63
2022/10/24 01:22:59;;;;;;;9.68;8.05;;;15.80;99.90;;;;;;5074154;28;20024;-62
2022/10/24 01:25:58;;;;;;;10.63;9.07;;;15.80;99.90;;;;;;5073905;28;20055;-64
2022/10/24 01:28:48;;;;;;;8.00;7.20;;;15.70;99.90;;;;;;5073911;28;20390;-63
2022/10/24 01:31:30;;;;;;;9.73;7.20;;;15.70;99.90;;;;;;5073654;28;20503;-63
2022/10/24 01:34:06;;;;;;;8.07;6.88;;;15.70;99.90;;;;;;5073975;28;20119;-62
2022/10/24 01:36:48;;;;;;;6.95;6.10;;;15.70;99.90;;;;;;5073832;28;20020;-63
2022/10/24 01:39:19;;;;;;;7.40;6.70;;;15.70;99.90;;;;;;5073612;28;20035;-63
2022/10/24 01:41:46;;;;;;;8.52;7.18;;;15.70;99.90;;;;;;5073748;28;20024;-64
2022/10/24 01:44:24;;;;;;;7.63;6.63;;;15.70;99.90;;;;;;5073776;28;20502;-63
2022/10/24 01:47:02;;;;;;;7.40;6.28;;;15.70;99.90;;;;;;5073816;28;20025;-62
2022/10/24 01:49:32;;;;;;;8.98;6.45;;;15.70;99.90;;;;;;5073956;28;20103;-63
2022/10/24 01:52:02;;;;;;;10.93;8.52;;;15.70;99.90;;;;;;5073732;28;20099;-63
2022/10/24 01:54:29;;;;;;;10.00;7.32;;;15.60;99.90;;;;;;5073274;28;20024;-62
2022/10/24 01:56:55;;;;;;;9.13;7.80;;;15.50;99.90;;;;;;5073711;28;20020;-62
2022/10/24 01:59:27;;;;;;;7.88;6.82;;;15.50;99.90;;;;;;5073774;28;20027;-62
2022/10/24 02:02:17;;;;;;;7.97;7.18;;;15.40;99.90;;;;;;5073478;28;20020;-64
2022/10/24 02:05:04;;;;;;;7.93;6.38;;;15.50;99.90;;;;;;5073537;28;20029;-64
2022/10/24 02:07:32;;;;;;;8.18;6.70;;;15.50;99.90;;;;;;5073425;28;20032;-64
2022/10/24 02:10:11;;;;;;;8.95;8.05;;;15.50;99.90;;;;;;5073259;28;20077;-64
2022/10/24 02:12:43;;;;;;;8.70;7.18;;;15.40;99.90;;;;;;5073492;28;20021;-62
2022/10/24 02:15:18;;;;;;;6.15;5.50;;;15.40;99.90;;;;;;5073249;28;20398;-64
2022/10/24 02:17:44;;;;;;;7.32;6.25;;;15.30;99.90;;;;;;5073160;28;20153;-62
2022/10/24 02:20:10;;;;;;;6.97;6.25;;;15.30;99.90;;;;;;5073384;28;20111;-62
2022/10/24 02:22:36;;;;;;;6.53;5.82;;;15.30;99.90;;;;;;5073066;28;20059;-63
2022/10/24 02:25:05;;;;;;;7.15;5.80;;;15.30;99.90;;;;;;5073204;28;20052;-62
2022/10/24 02:27:45;;;;;;;6.75;6.00;;;15.30;99.90;;;;;;5073251;28;20158;-63
2022/10/24 02:30:20;;;;;;;7.25;6.55;;;15.30;99.90;;;;;;5072945;28;20059;-64
2022/10/24 02:32:50;;;;;;;6.57;5.85;;;15.30;99.90;;;;;;5073239;28;20020;-63
2022/10/24 02:35:18;;;;;;;6.35;5.43;;;15.20;99.90;;;;;;5073405;28;20386;-64
2022/10/24 02:37:51;;;;;;;6.47;4.95;;;15.20;99.90;;;;;;5072863;28;20028;-62
2022/10/24 02:40:19;;;;;;;5.40;4.90;;;15.10;99.90;;;;;;5073225;28;20027;-64
2022/10/24 02:42:48;;;;;;;6.45;5.65;;;15.20;99.90;;;;;;5073070;28;20477;-64
2022/10/24 02:45:15;;;;;;;5.65;4.60;;;15.20;99.90;;;;;;5073074;28;20070;-63
2022/10/24 02:47:42;;;;;;;6.65;5.93;;;15.10;99.90;;;;;;5073046;28;20563;-63
2022/10/24 02:50:09;;;;;;;6.20;4.90;;;15.10;99.90;;;;;;5072924;28;20028;-64
2022/10/24 02:52:37;;;;;;;4.88;4.43;;;15.10;99.90;;;;;;5072896;28;20533;-64
2022/10/24 02:55:03;;;;;;;6.95;6.03;;;15.00;99.90;;;;;;5072865;28;20033;-62
2022/10/24 02:57:29;;;;;;;6.40;5.60;;;15.10;99.90;;;;;;5072806;28;20087;-63
2022/10/24 02:59:54;;;;;;;6.18;4.70;;;15.00;99.90;;;;;;5072959;28;20025;-64
2022/10/24 03:02:21;;;;;;;6.82;5.07;;;14.90;99.90;;;;;;5072942;28;20033;-63
2022/10/24 03:04:47;;;;;;;5.57;5.07;;;14.90;99.90;;;;;;5072922;28;20025;-62
2022/10/24 03:07:12;;;;;;;6.38;5.05;;;15.00;99.90;;;;;;5072653;28;20425;-62
2022/10/24 03:09:38;;;;;;;5.93;5.35;;;15.00;99.90;;;;;;5072809;28;20103;-62
2022/10/24 03:12:04;;;;;;;7.22;5.65;;;14.90;99.90;;;;;;5072841;28;20029;-63
2022/10/24 03:14:30;;;;;;;7.60;6.35;;;14.90;99.90;;;;;;5072536;28;20108;-63
2022/10/24 03:16:55;;;;;;;7.18;5.18;;;14.90;99.90;;;;;;5072676;28;20078;-62
2022/10/24 03:19:21;;;;;;;7.95;5.72;;;14.90;99.90;;;;;;5072742;28;20100;-62
2022/10/24 03:21:47;;;;;;;5.85;5.25;;;14.90;99.90;;;;;;5072435;28;20120;-64
2022/10/24 03:24:12;;;;;;;5.65;5.05;;;14.90;99.90;;;;;;5072641;28;20024;-61
2022/10/24 03:26:38;;;;;;;5.20;4.70;;;14.90;99.90;;;;;;5073356;28;20025;-63
2022/10/24 03:29:03;;;;;;;5.68;5.05;;;14.90;99.90;;;;;;5076096;28;20360;-63
2022/10/24 03:31:30;;;;;;;5.03;4.50;;;14.90;99.90;;;;;;5076267;28;20501;-62
2022/10/24 03:33:56;;;;;;;6.38;4.38;;;14.90;99.90;;;;;;5076230;28;20035;-63
2022/10/24 03:36:22;;;;;;;4.38;3.97;;;14.90;99.90;;;;;;5075974;28;20383;-63
2022/10/24 03:38:48;;;;;;;4.75;3.80;;;14.90;99.90;;;;;;5076391;28;20025;-61
2022/10/24 03:41:14;;;;;;;5.28;4.70;;;14.90;99.90;;;;;;5076038;28;20036;-63
2022/10/24 03:43:39;;;;;;;5.43;4.70;;;14.80;99.90;;;;;;5076121;28;20024;-64
2022/10/24 03:46:05;;;;;;;6.65;5.20;;;14.80;99.90;;;;;;5076014;28;20028;-61
2022/10/24 03:48:31;;;;;;;4.82;4.43;;;14.80;99.90;;;;;;5075954;28;20390;-63
2022/10/24 03:50:56;;;;;;;5.97;4.70;;;14.70;99.90;;;;;;5076042;28;20025;-64
2022/10/24 03:53:22;;;;;;;7.72;5.60;;;14.70;99.90;;;;;;5075755;28;20029;-63
2022/10/24 03:55:48;;;;;;;6.60;5.32;;;14.80;99.90;;;;;;5075817;28;20021;-64
2022/10/24 03:58:13;;;;;;;5.88;4.57;;;14.70;99.90;;;;;;5075837;28;20094;-64
2022/10/24 04:00:40;;;;;;;6.72;4.72;;;14.60;99.90;;;;;;5075701;28;20019;-64
2022/10/24 04:03:06;;;;;;;5.43;4.90;;;14.60;99.90;;;;;;5075485;28;20021;-62
2022/10/24 04:05:33;;;;;;;4.78;4.05;;;14.60;99.90;;;;;;5075705;28;20017;-62
2022/10/24 04:07:58;;;;;;;4.72;3.90;;;14.50;99.90;;;;;;5075830;28;20040;-64
2022/10/24 04:10:24;;;;;;;3.92;3.63;;;14.50;99.90;;;;;;5075596;28;20423;-62
2022/10/24 04:12:50;;;;;;;3.47;3.10;;;14.60;99.90;;;;;;5075519;28;20027;-64
2022/10/24 04:15:16;;;;;;;5.53;4.07;;;14.60;99.90;;;;;;5075547;28;20356;-64
2022/10/24 04:17:41;;;;;;;4.15;3.40;;;14.60;99.90;;;;;;5075268;28;20024;-64
2022/10/24 04:20:07;;;;;;;4.05;3.65;;;14.60;99.90;;;;;;5075181;28;20024;-64
2022/10/24 04:22:33;;;;;;;4.15;3.83;;;14.60;99.90;;;;;;5075358;28;20017;-63
2022/10/24 04:24:59;;;;;;;3.67;3.38;;;14.60;99.90;;;;;;5075856;28;20017;-63
2022/10/24 04:27:25;;;;;;;4.18;3.65;;;14.60;99.90;;;;;;5075337;28;20024;-63
2022/10/24 04:29:50;;;;;;;4.65;4.13;;;14.50;99.90;;;;;;5075081;28;20056;-62
2022/10/24 04:32:16;;;;;;;5.90;4.90;;;14.60;99.90;;;;;;5075092;28;20025;-63
2022/10/24 04:34:42;;;;;;;7.68;5.35;;;14.60;99.90;;;;;;5074850;28;20116;-62
2022/10/24 04:37:07;;;;;;;5.47;4.90;;;14.50;99.90;;;;;;5075035;28;20387;-62
2022/10/24 04:39:33;;;;;;;5.13;4.28;;;14.50;99.90;;;;;;5074873;28;20024;-62
2022/10/24 04:41:59;;;;;;;5.28;4.68;;;14.40;99.90;;;;;;5075169;28;20027;-62
2022/10/24 04:44:24;;;;;;;6.05;4.50;;;14.40;99.90;;;;;;5075068;28;20475;-62
2022/10/24 04:46:50;;;;;;;7.93;6.90;;;14.40;99.90;;;;;;5075158;28;20434;-63
2022/10/24 04:49:16;;;;;;;9.43;6.50;;;14.40;99.90;;;;;;5074533;28;20017;-62
2022/10/24 04:51:42;;;;;;;7.90;6.68;;;14.40;99.90;;;;;;5074782;28;20021;-64
2022/10/24 04:54:07;;;;;;;9.00;7.60;;;14.40;99.90;;;;;;5074651;28;20032;-63
2022/10/24 04:56:33;;;;;;;7.13;6.43;;;14.40;99.90;;;;;;5074529;28;20043;-62
2022/10/24 04:58:59;;;;;;;6.07;5.47;;;14.30;99.90;;;;;;5074650;28;20028;-63
2022/10/24 05:01:25;;;;;;;6.43;5.78;;;14.20;99.90;;;;;;5074514;28;20029;-64
2022/10/24 05:03:50;;;;;;;8.55;6.97;;;14.30;99.90;;;;;;5074407;28;20379;-62
2022/10/24 05:06:16;;;;;;;7.03;6.32;;;14.30;99.90;;;;;;5074591;28;20467;-64
2022/10/24 05:08:41;;;;;;;9.07;6.68;;;14.30;99.90;;;;;;5074520;28;20382;-63
2022/10/24 05:11:10;;;;;;;9.25;7.30;;;14.30;99.90;;;;;;5074211;28;20048;-62
2022/10/24 05:13:40;;;;;;;11.48;9.20;;;14.30;99.90;;;;;;5074397;28;20032;-64
2022/10/24 05:16:06;;;;;;;8.48;7.22;;;14.30;99.90;;;;;;5073792;28;20021;-63
2022/10/24 05:18:32;;;;;;;9.55;8.07;;;14.20;99.90;;;;;;5074127;28;20027;-63
2022/10/24 05:20:58;;;;;;;7.63;6.75;;;14.20;99.90;;;;;;5074175;28;20024;-63
2022/10/24 05:23:25;;;;;;;7.88;6.55;;;14.20;99.90;;;;;;5074115;28;20025;-63
2022/10/24 05:25:51;;;;;;;6.85;6.15;;;14.20;99.90;;;;;;5074006;28;20021;-65
2022/10/24 05:28:17;;;;;;;7.88;6.25;;;14.30;99.90;;;;;;5074104;28;20043;-63
2022/10/24 05:30:43;;;;;;;6.40;5.70;;;14.40;99.90;;;;;;5073879;28;20071;-64
2022/10/24 05:33:09;;;;;;;7.70;6.95;;;14.30;99.90;;;;;;5073740;28;20025;-63
2022/10/24 05:35:35;;;;;;;8.32;7.53;;;14.40;99.90;;;;;;5072590;28;20044;-62
2022/10/24 05:38:01;;;;;;;9.55;8.63;;;14.40;99.90;;;;;;5073890;28;20021;-63
2022/10/24 05:40:27;;;;;;;10.40;9.30;;;14.50;99.90;;;;;;5073811;28;20506;-64
2022/10/24 05:42:52;;;;;;;19.48;15.45;;;14.50;99.90;;;;;;5073662;28;20493;-64
2022/10/24 05:45:18;;;;;;;24.80;19.40;;;14.50;99.90;;;;;;5073880;28;20024;-64
2022/10/24 05:47:44;;;;;;;24.02;18.75;;;14.50;99.90;;;;;;5073690;28;20023;-62
2022/10/24 05:50:10;;;;;;;18.05;14.85;;;14.40;99.90;;;;;;5073194;28;20040;-62
2022/10/24 05:52:36;;;;;;;14.43;12.70;;;14.50;99.90;;;;;;5073753;28;20044;-64
2022/10/24 05:55:06;;;;;;;22.85;17.40;;;14.50;99.90;;;;;;5073536;28;20102;-63
2022/10/24 05:57:32;;;;;;;17.65;15.68;;;14.60;99.90;;;;;;5073506;28;20100;-62
2022/10/24 05:59:58;;;;;;;18.92;16.02;;;14.60;99.90;;;;;;5073654;28;20052;-64
2022/10/24 06:02:24;;;;;;;18.38;14.90;;;14.60;99.90;;;;;;5073492;28;20024;-63
2022/10/24 06:04:50;;;;;;;15.85;13.77;;;14.60;99.90;;;;;;5073648;28;20024;-63
2022/10/24 06:07:16;;;;;;;18.98;15.73;;;14.70;99.90;;;;;;5073485;28;20066;-62
2022/10/24 06:09:42;;;;;;;17.65;15.43;;;14.90;99.90;;;;;;5073703;28;20025;-63
2022/10/24 06:12:09;;;;;;;23.17;16.50;;;15.10;99.90;;;;;;5073348;28;20023;-65
2022/10/24 06:14:36;;;;;;;15.05;12.85;;;15.20;99.90;;;;;;5073098;28;20028;-63
2022/10/24 06:17:04;;;;;;;15.93;13.15;;;15.30;99.90;;;;;;5073291;28;20021;-62
2022/10/24 06:19:30;;;;;;;13.88;12.13;;;15.40;99.90;;;;;;5073526;28;20021;-64
2022/10/24 06:21:55;;;;;;;12.52;11.23;;;15.50;99.90;;;;;;5073267;28;20433;-64
2022/10/24 06:24:21;;;;;;;11.30;10.10;;;15.70;99.90;;;;;;5073306;28;20497;-67
2022/10/24 06:26:47;;;;;;;11.55;10.30;;;15.90;99.90;;;;;;5072118;28;20107;-64
2022/10/24 06:29:12;;;;;;;11.38;10.10;;;16.00;99.90;;;;;;5072775;28;20119;-62
2022/10/24 06:31:38;;;;;;;10.50;9.20;;;16.10;99.90;;;;;;5073212;28;20024;-64
2022/10/24 06:34:03;;;;;;;11.40;9.23;;;16.20;99.90;;;;;;5073078;28;20390;-62
2022/10/24 06:36:29;;;;;;;10.15;8.38;;;16.30;99.90;;;;;;5072775;28;20020;-62
2022/10/24 06:38:56;;;;;;;8.85;7.95;;;16.50;99.90;;;;;;5072029;28;20025;-62
2022/10/24 06:41:22;;;;;;;8.98;7.95;;;16.70;99.90;;;;;;5073263;28;20386;-64
2022/10/24 06:43:48;;;;;;;9.35;8.35;;;16.80;99.90;;;;;;5072729;28;20090;-63
2022/10/24 06:46:16;;;;;;;9.10;7.68;;;17.00;99.90;;;;;;5073082;28;20429;-64
2022/10/24 06:48:42;;;;;;;12.25;8.70;;;17.20;99.90;;;;;;5073205;28;20095;-62
2022/10/24 06:51:08;;;;;;;11.13;8.85;;;17.40;99.90;;;;;;5072846;28;20044;-64
2022/10/24 06:53:34;;;;;;;9.90;8.90;;;17.70;99.90;;;;;;5072694;28;20372;-63
2022/10/24 06:56:01;;;;;;;11.50;8.88;;;17.90;99.90;;;;;;5073256;28;20036;-62
2022/10/24 06:58:31;;;;;;;9.90;8.82;;;18.20;99.90;;;;;;5072656;28;20032;-64
2022/10/24 07:00:57;;;;;;;7.68;6.95;;;18.40;99.90;;;;;;5072846;28;20017;-64
2022/10/24 07:03:23;;;;;;;8.63;7.72;;;19.10;99.90;;;;;;5076718;28;20035;-64
2022/10/24 07:05:48;;;;;;;9.40;8.00;;;19.60;99.90;;;;;;5076749;28;20021;-63
2022/10/24 07:08:14;;;;;;;8.85;7.95;;;20.00;99.90;;;;;;5077255;28;20094;-63
2022/10/24 07:10:39;;;;;;;12.05;9.80;;;19.90;99.90;;;;;;5076915;28;20032;-63
2022/10/24 07:13:05;;;;;;;12.95;11.20;;;20.80;97.50;;;;;;5074462;28;20066;-62
2022/10/24 07:15:31;;;;;;;13.77;11.18;;;21.80;90.80;;;;;;5075147;28;20028;-62
2022/10/24 07:17:56;;;;;;;11.35;10.18;;;22.70;84.00;;;;;;5076349;28;20413;-63
2022/10/24 07:20:22;;;;;;;10.85;9.63;;;23.60;78.00;;;;;;5076487;28;20100;-63
2022/10/24 07:22:48;;;;;;;10.02;9.02;;;24.30;73.30;;;;;;5076347;28;20051;-64
2022/10/24 07:25:14;;;;;;;11.55;9.73;;;25.00;67.50;;;;;;5076553;28;20024;-64
2022/10/24 07:27:40;;;;;;;12.48;10.60;;;25.70;63.50;;;;;;5076207;28;20429;-64
2022/10/24 07:30:07;;;;;;;9.65;8.65;;;26.30;61.20;;;;;;5076139;28;20088;-63
2022/10/24 07:32:33;;;;;;;11.68;8.68;;;26.70;60.20;;;;;;5076298;28;20044;-62
2022/10/24 07:34:59;;;;;;;10.48;8.65;;;26.90;58.00;;;;;;5076114;28;20487;-64
2022/10/24 07:37:25;;;;;;;11.13;10.00;;;26.30;57.80;;;;;;5076109;28;20021;-61
2022/10/24 07:39:51;;;;;;;13.25;10.52;;;25.90;59.10;;;;;;5076170;28;20028;-63
2022/10/24 07:42:17;;;;;;;10.73;9.57;;;26.30;59.30;;;;;;5075802;28;20020;-62
2022/10/24 07:44:43;;;;;;;9.52;8.52;;;27.10;58.80;;;;;;5075824;28;20028;-62
2022/10/24 07:47:10;;;;;;;9.48;8.57;;;27.30;57.40;;;;;;5076284;28;20032;-62
2022/10/24 07:49:37;;;;;;;8.85;7.97;;;27.70;56.90;;;;;;5074439;28;20070;-64
2022/10/24 07:52:03;;;;;;;8.30;7.50;;;28.30;55.70;;;;;;5075630;28;20055;-62
2022/10/24 07:54:29;;;;;;;7.43;6.55;;;28.60;55.50;;;;;;5075139;28;20440;-63
2022/10/24 07:56:55;;;;;;;6.93;6.22;;;29.30;54.10;;;;;;5075346;28;20021;-63
2022/10/24 07:59:20;;;;;;;8.65;6.53;;;29.70;52.40;;;;;;5075203;28;20390;-62
2022/10/24 08:01:46;;;;;;;8.27;7.13;;;29.90;51.40;;;;;;5075720;28;20428;-63
2022/10/24 08:04:12;;;;;;;7.18;6.57;;;29.90;50.50;;;;;;5075606;28;20017;-64
2022/10/24 08:06:41;;;;;;;8.68;7.88;;;30.00;51.20;;;;;;5075743;28;20017;-62
2022/10/24 08:09:07;;;;;;;11.30;10.20;;;30.20;50.90;;;;;;5073893;28;20039;-62
2022/10/24 08:11:33;;;;;;;11.48;10.38;;;30.60;50.30;;;;;;5072848;28;20024;-63
2022/10/24 08:14:01;;;;;;;16.02;14.43;;;30.70;49.00;;;;;;5073026;28;20032;-65
2022/10/24 08:16:26;;;;;;;11.30;10.20;;;31.30;49.00;;;;;;5073863;28;20459;-62
2022/10/24 08:18:55;;;;;;;9.82;8.82;;;30.60;47.20;;;;;;5074005;28;20036;-61
2022/10/24 08:21:22;;;;;;;9.35;8.55;;;29.60;49.70;;;;;;5073830;28;20070;-64
2022/10/24 08:23:50;;;;;;;11.18;9.35;;;28.40;51.90;;;;;;5075035;28;20020;-62
2022/10/24 08:26:18;;;;;;;11.52;9.10;;;27.30;53.10;;;;;;5075077;28;20021;-63
2022/10/24 08:28:45;;;;;;;8.48;7.60;;;26.50;54.20;;;;;;5075454;28;20032;-62
2022/10/24 08:31:14;;;;;;;8.10;7.40;;;26.10;55.80;;;;;;5074822;28;20048;-64
2022/10/24 08:33:41;;;;;;;7.97;7.22;;;26.20;56.70;;;;;;5075123;28;20044;-61
2022/10/24 08:36:24;;;;;;;8.52;7.63;;;26.10;57.70;;;;;;5075076;28;20471;-63
2022/10/24 08:38:50;;;;;;;8.90;7.60;;;25.80;57.10;;;;;;5074840;28;20025;-63
2022/10/24 08:41:38;;;;;;;9.70;8.70;;;25.50;58.40;;;;;;5075029;28;20031;-62
2022/10/24 08:44:27;;;;;;;11.15;10.02;;;25.30;58.90;;;;;;5074699;28;20060;-63
2022/10/24 08:47:04;;;;;;;9.85;8.70;;;25.00;60.00;;;;;;5074822;28;20055;-62
2022/10/24 08:49:42;;;;;;;9.07;8.27;;;24.80;61.00;;;;;;5074877;28;20028;-63
2022/10/24 08:52:46;;;;;;;9.68;8.68;;;24.70;62.60;;;;;;5073286;28;20044;-62
2022/10/24 08:55:16;;;;;;;8.80;7.88;;;24.60;61.20;;;;;;5072505;28;20032;-62
2022/10/24 08:57:46;;;;;;;9.18;7.40;;;24.60;61.30;;;;;;5072960;28;20024;-63
2022/10/24 09:00:28;;;;;;;11.05;8.18;;;24.70;61.50;;;;;;5073439;28;20021;-63
2022/10/24 09:03:05;;;;;;;7.45;6.72;;;24.50;61.80;;;;;;5073995;28;20090;-61
2022/10/24 09:05:44;;;;;;;8.65;7.82;;;24.60;64.40;;;;;;5073984;28;20036;-62
2022/10/24 09:08:26;;;;;;;9.20;8.23;;;24.60;63.50;;;;;;5073812;28;20024;-62
2022/10/24 09:10:57;;;;;;;8.95;7.80;;;24.70;63.30;;;;;;5073898;28;20020;-63
2022/10/24 09:13:26;;;;;;;9.60;7.93;;;24.80;65.20;;;;;;5074068;28;20035;-62
2022/10/24 09:15:51;;;;;;;8.40;7.60;;;24.90;64.40;;;;;;5074404;28;20016;-64
2022/10/24 09:18:20;;;;;;;9.40;8.50;;;25.10;65.50;;;;;;5074452;28;20078;-63
2022/10/24 09:20:48;;;;;;;12.30;10.27;;;25.40;64.60;;;;;;5074121;28;20021;-64
2022/10/24 09:23:15;;;;;;;11.10;9.98;;;25.90;62.10;;;;;;5074270;28;20023;-63
2022/10/24 09:25:46;;;;;;;12.48;11.18;;;26.00;62.80;;;;;;5073193;28;20027;-64
2022/10/24 09:28:13;;;;;;;13.02;11.70;;;26.20;62.30;;;;;;5074211;28;20032;-64
2022/10/24 09:30:39;;;;;;;12.40;11.10;;;26.50;61.30;;;;;;5073594;28;20589;-64
2022/10/24 09:33:23;;;;;;;12.32;11.05;;;26.80;59.00;;;;;;5073861;28;20021;-64
2022/10/24 09:35:51;;;;;;;13.63;11.23;;;27.20;58.30;;;;;;5073872;28;20024;-62
2022/10/24 09:38:26;;;;;;;12.55;11.32;;;27.60;57.70;;;;;;5073535;28;20016;-62
2022/10/24 09:40:57;;;;;;;13.20;11.90;;;28.00;55.90;;;;;;5073525;28;20087;-62
2022/10/24 09:43:42;;;;;;;12.73;11.23;;;28.10;55.70;;;;;;5073192;28;20028;-65
2022/10/24 09:46:14;;;;;;;11.82;10.73;;;28.00;55.50;;;;;;5072971;28;20031;-64
2022/10/24 09:48:49;;;;;;;10.77;9.68;;;28.00;56.10;;;;;;5073785;28;20036;-62
2022/10/24 09:51:34;;;;;;;11.48;10.38;;;28.10;55.50;;;;;;5073394;28;20092;-65
2022/10/24 09:54:18;;;;;;;14.18;11.90;;;28.40;54.60;;;;;;5073343;28;20547;-63
2022/10/24 09:56:46;;;;;;;15.10;13.10;;;28.60;53.30;;;;;;5073387;28;20055;-62
2022/10/24 09:59:32;;;;;;;15.98;13.75;;;28.70;54.00;;;;;;5071590;28;20355;-63
2022/10/24 10:02:26;;;;;;;17.52;13.88;;;28.60;54.30;;;;;;5071630;28;20031;-62
2022/10/24 10:05:01;;;;;;;16.13;14.43;;;28.60;53.90;;;;;;5072493;28;20021;-63
2022/10/24 10:07:29;;;;;;;15.25;13.70;;;29.00;54.90;;;;;;5072573;28;20021;-63
2022/10/24 10:09:58;;;;;;;17.08;14.23;;;29.10;53.70;;;;;;5072604;28;20094;-64
2022/10/24 10:12:37;;;;;;;28.23;19.65;;;29.30;54.10;;;;;;5073157;28;20029;-64
2022/10/24 10:15:26;;;;;;;22.60;18.30;;;29.60;53.40;;;;;;5073247;28;20059;-62
2022/10/24 10:17:55;;;;;;;17.85;15.98;;;29.00;53.40;;;;;;5072260;28;20027;-64
2022/10/24 10:20:28;;;;;;;16.38;13.98;;;28.60;54.60;;;;;;5073393;28;20021;-61
2022/10/24 10:22:53;;;;;;;;;;;28.50;54.60;;;;;;5073392;28;20074;-62
2022/10/24 10:25:31;;;;;;;17.25;14.77;;;28.50;55.30;;;;;;5072431;28;19908;-64
2022/10/24 10:27:57;;;;;;;29.88;22.77;;;28.30;56.10;;;;;;5069923;28;20028;-62
2022/10/24 10:30:23;;;;;;;22.70;20.38;;;28.40;55.90;;;;;;5072989;28;20050;-63
2022/10/24 10:32:59;;;;;;;16.02;13.35;;;28.60;59.40;;;;;;5071659;28;20021;-64
2022/10/24 10:35:38;;;;;;;11.43;10.32;;;29.00;56.10;;;;;;5070370;28;20063;-61
2022/10/24 10:38:45;;;;;;;12.38;9.35;;;29.50;54.50;;;;;;5076273;28;20017;-62
2022/10/24 10:41:14;;;;;;;11.57;8.35;;;29.90;53.50;;;;;;5066451;28;20360;-63
2022/10/24 10:44:01;;;;;;;11.73;8.48;;;30.30;52.20;;;;;;5078985;28;20571;-62
2022/10/24 10:46:36;;;;;;;20.50;18.30;;;30.40;52.10;;;;;;5078399;28;20020;-63
2022/10/24 10:49:28;;;;;;;11.57;10.38;;;30.40;51.40;;;;;;5079388;28;20028;-63
2022/10/24 10:52:07;;;;;;;11.23;9.52;;;30.60;51.30;;;;;;5079590;28;20517;-61
2022/10/24 10:54:47;;;;;;;10.55;8.25;;;30.70;51.40;;;;;;5079533;28;20043;-63
2022/10/24 10:57:21;;;;;;;8.95;7.32;;;30.90;50.50;;;;;;5079605;28;20048;-63
2022/10/24 11:00:16;;;;;;;8.93;7.10;;;31.10;50.30;;;;;;5079039;28;20099;-61
2022/10/24 11:03:09;;;;;;;9.32;6.22;;;31.20;50.40;;;;;;5078243;28;20119;-63
2022/10/24 11:05:51;;;;;;;10.82;7.50;;;31.40;50.20;;;;;;5077444;28;20431;-62
2022/10/24 11:08:16;;;;;;;9.77;7.40;;;31.30;49.40;;;;;;5077988;28;20021;-61
2022/10/24 11:10:52;;;;;;;11.73;8.13;;;30.90;50.70;;;;;;5078110;28;20027;-62
2022/10/24 11:13:29;;;;;;;12.00;8.25;;;30.70;51.40;;;;;;5078641;28;20070;-63
2022/10/24 11:15:59;;;;;;;12.45;8.70;;;30.70;51.50;;;;;;5078769;28;20668;-61
2022/10/24 11:18:32;;;;;;;10.23;8.55;;;30.90;50.80;;;;;;5078477;28;20064;-63
2022/10/24 11:20:58;;;;;;;10.60;9.00;;;31.30;50.60;;;;;;5078935;28;20024;-63
2022/10/24 11:23:39;;;;;;;11.02;9.43;;;31.50;50.90;;;;;;5078853;28;20117;-63
2022/10/24 11:26:21;;;;;;;17.63;13.55;;;31.70;49.90;;;;;;5079155;28;20020;-63
2022/10/24 11:29:07;;;;;;;17.13;13.65;;;31.90;49.20;;;;;;5079165;28;20059;-61
2022/10/24 11:31:42;;;;;;;19.63;14.02;;;31.70;50.30;;;;;;5079135;28;20474;-62
2022/10/24 11:34:50;;;;;;;19.75;13.95;;;31.80;49.40;;;;;;5070125;28;20075;-60
2022/10/24 11:37:31;;;;;;;17.13;13.10;;;32.00;49.40;;;;;;5065200;28;20033;-61
2022/10/24 11:40:05;;;;;;;17.50;13.95;;;32.30;49.40;;;;;;5058644;28;20048;-60
2022/10/24 11:42:49;;;;;;;18.10;13.35;;;32.40;48.70;;;;;;5058970;28;20028;-62
2022/10/24 11:45:18;;;;;;;19.42;13.98;;;32.50;48.00;;;;;;5064355;28;20013;-60
2022/10/24 11:48:04;;;;;;;19.45;13.70;;;32.50;48.40;;;;;;5056575;28;20079;-61
2022/10/24 11:50:48;;;;;;;19.20;13.70;;;32.50;47.90;;;;;;5055693;28;20434;-63
2022/10/24 11:53:41;;;;;;;19.40;14.00;;;32.40;48.00;;;;;;5055453;28;20489;-63
2022/10/24 11:56:10;;;;;;;;;;;32.10;48.60;;;;;;5056027;28;20078;-61
2022/10/24 11:58:51;;;;;;;17.27;12.75;;;31.90;48.60;;;;;;5061802;28;19958;-62
2022/10/24 12:01:55;;;;;;;18.90;12.55;;;31.80;49.20;;;;;;5066069;28;20020;-62
2022/10/24 12:04:40;;;;;;;14.88;11.65;;;32.10;47.50;;;;;;5064682;28;20421;-62
2022/10/24 12:07:24;;;;;;;14.63;11.60;;;32.10;48.50;;;;;;5071563;28;20028;-63
2022/10/24 12:09:58;;;;;;;19.67;12.85;;;32.30;46.50;;;;;;5075271;28;20028;-63
2022/10/24 12:12:42;;;;;;;17.40;12.45;;;32.20;47.20;;;;;;5075667;28;20103;-62
2022/10/24 12:15:17;;;;;;;18.90;11.75;;;31.80;47.60;;;;;;5075419;28;20039;-61
2022/10/24 12:17:56;;;;;;;17.70;11.20;;;31.90;47.50;;;;;;5075257;28;20021;-63
2022/10/24 12:20:24;;;;;;;14.68;10.43;;;31.80;48.60;;;;;;5075369;28;20021;-63
2022/10/24 12:22:51;;;;;;;17.60;10.32;;;31.90;47.00;;;;;;5074890;28;20502;-60
2022/10/24 12:25:28;;;;;;;12.55;9.65;;;31.90;48.60;;;;;;5075025;28;20028;-61
2022/10/24 12:28:01;;;;;;;13.57;8.80;;;32.00;48.80;;;;;;5075238;28;20028;-60
2022/10/24 12:30:29;;;;;;;16.48;11.63;;;32.30;49.00;;;;;;5074168;28;20052;-63
2022/10/24 12:33:06;;;;;;;12.95;9.15;;;32.30;46.20;;;;;;5072443;28;20119;-61
2022/10/24 12:35:36;;;;;;;12.20;9.57;;;32.30;47.10;;;;;;5072916;28;20395;-61
2022/10/24 12:38:33;;;;;;;15.85;10.18;;;32.50;45.70;;;;;;5073308;28;20028;-62
2022/10/24 12:41:08;;;;;;;11.52;8.77;;;32.50;44.90;;;;;;5072838;28;20094;-60
2022/10/24 12:43:36;;;;;;;10.88;7.90;;;32.50;45.20;;;;;;5072612;28;20028;-60
2022/10/24 12:46:14;;;;;;;12.32;8.88;;;32.60;45.30;;;;;;5071868;28;20020;-61
2022/10/24 12:48:43;;;;;;;11.60;8.45;;;32.60;44.50;;;;;;5070571;28;20387;-61
2022/10/24 12:51:29;;;;;;;8.85;7.13;;;32.50;44.10;;;;;;5072161;28;20021;-60
2022/10/24 12:54:13;;;;;;;8.50;6.63;;;32.60;43.60;;;;;;5071023;28;20072;-60
2022/10/24 12:56:48;;;;;;;9.13;6.50;;;32.70;43.40;;;;;;5072524;28;20093;-60
2022/10/24 12:59:28;;;;;;;7.90;6.43;;;33.00;43.40;;;;;;5072169;28;20104;-60
2022/10/24 13:02:12;;;;;;;11.02;7.38;;;33.10;43.00;;;;;;5071145;28;20103;-60